createdAt,value
2022-10-17T00:00:19.468Z,28.95
2022-10-17T00:02:46.539Z,24.92
2022-10-17T00:05:13.767Z,23.65
2022-10-17T00:07:40.834Z,25.92
2022-10-17T00:10:08.443Z,24.35
2022-10-17T00:12:35.651Z,24.08
2022-10-17T00:15:04.650Z,27.25
2022-10-17T00:17:31.855Z,27.98
2022-10-17T00:19:59.620Z,23.65
2022-10-17T00:22:27.078Z,26.40
2022-10-17T00:24:54.316Z,27.55
2022-10-17T00:27:21.383Z,28.75
2022-10-17T00:29:49.747Z,28.83
2022-10-17T00:32:16.839Z,28.30
2022-10-17T00:34:43.914Z,28.20
2022-10-17T00:37:11.129Z,24.63
2022-10-17T00:39:38.697Z,30.33
2022-10-17T00:42:05.744Z,33.85
2022-10-17T00:44:32.806Z,29.23
2022-10-17T00:47:02.516Z,28.77
2022-10-17T00:49:31.454Z,26.58
2022-10-17T00:52:00.654Z,28.88
2022-10-17T00:54:40.925Z,25.73
2022-10-17T00:57:08.025Z,28.80
2022-10-17T00:59:36.779Z,26.55
2022-10-17T01:02:05.938Z,26.23
2022-10-17T01:04:33.022Z,27.42
2022-10-17T01:07:00.082Z,29.00
2022-10-17T01:09:27.522Z,29.85
2022-10-17T01:12:05.184Z,30.85
2022-10-17T01:14:36.861Z,30.52
2022-10-17T01:17:06.704Z,48.30
2022-10-17T01:19:51.103Z,30.13
2022-10-17T01:22:24.222Z,31.65
2022-10-17T01:25:00.251Z,31.65
2022-10-17T01:27:45.975Z,28.15
2022-10-17T01:30:16.026Z,31.60
2022-10-17T01:32:56.893Z,28.25
2022-10-17T01:35:30.424Z,30.70
2022-10-17T01:38:05.706Z,32.22
2022-10-17T01:40:53.078Z,29.70
2022-10-17T01:43:29.409Z,35.65
2022-10-17T01:46:02.565Z,30.92
2022-10-17T01:48:33.759Z,33.92
2022-10-17T01:51:03.710Z,32.05
2022-10-17T01:53:33.458Z,34.22
2022-10-17T01:56:01.778Z,30.75
2022-10-17T01:58:30.261Z,35.40
2022-10-17T02:00:58.879Z,32.20
2022-10-17T02:03:26.619Z,31.08
2022-10-17T02:05:53.775Z,29.38
2022-10-17T02:08:40.514Z,32.55
2022-10-17T02:11:10.549Z,27.63
2022-10-17T02:13:49.519Z,28.30
2022-10-17T02:16:25.469Z,25.75
2022-10-17T02:19:11.244Z,31.58
2022-10-17T02:21:47.432Z,26.17
2022-10-17T02:24:17.302Z,35.38
2022-10-17T02:27:07.101Z,30.17
2022-10-17T02:29:37.273Z,32.33
2022-10-17T02:32:09.203Z,29.38
2022-10-17T02:34:43.610Z,30.52
2022-10-17T02:37:12.264Z,29.20
2022-10-17T02:39:41.018Z,38.15
2022-10-17T02:42:09.953Z,34.58
2022-10-17T02:44:38.963Z,31.90
2022-10-17T02:47:09.910Z,30.27
2022-10-17T02:49:39.979Z,34.15
2022-10-17T02:52:18.157Z,39.67
2022-10-17T02:54:48.486Z,38.70
2022-10-17T02:57:15.528Z,38.42
2022-10-17T02:59:45.071Z,36.28
2022-10-17T03:02:12.434Z,40.67
2022-10-17T03:04:43.176Z,47.75
2022-10-17T03:07:10.643Z,45.35
2022-10-17T03:09:37.730Z,41.78
2022-10-17T03:12:05.011Z,48.13
2022-10-17T03:14:32.071Z,41.17
2022-10-17T03:16:59.135Z,42.88
2022-10-17T03:19:26.272Z,41.65
2022-10-17T03:21:53.357Z,42.17
2022-10-17T03:24:20.402Z,40.17
2022-10-17T03:26:47.467Z,40.90
2022-10-17T03:29:14.897Z,41.05
2022-10-17T03:31:42.007Z,43.28
2022-10-17T03:34:09.044Z,41.05
2022-10-17T03:36:36.105Z,39.92
2022-10-17T03:39:03.150Z,40.97
2022-10-17T03:41:30.221Z,44.28
2022-10-17T03:43:57.289Z,43.38
2022-10-17T03:46:24.361Z,39.65
2022-10-17T03:48:51.396Z,38.28
2022-10-17T03:51:18.590Z,43.13
2022-10-17T03:53:45.740Z,44.25
2022-10-17T03:56:17.035Z,44.55
2022-10-17T03:58:44.224Z,38.17
2022-10-17T04:01:12.421Z,39.28
2022-10-17T04:03:39.887Z,39.33
2022-10-17T04:06:07.498Z,36.20
2022-10-17T04:08:35.087Z,43.50
2022-10-17T04:11:03.036Z,48.75
2022-10-17T04:13:30.740Z,40.83
2022-10-17T04:15:59.377Z,41.33
2022-10-17T04:18:26.651Z,37.53
2022-10-17T04:20:53.747Z,40.75
2022-10-17T04:23:21.243Z,43.67
2022-10-17T04:25:49.315Z,41.20
2022-10-17T04:28:16.518Z,38.58
2022-10-17T04:30:45.508Z,44.00
2022-10-17T04:33:13.012Z,39.67
2022-10-17T04:35:40.306Z,40.88
2022-10-17T04:38:07.355Z,41.90
2022-10-17T04:40:34.435Z,41.47
2022-10-17T04:43:01.480Z,39.00
2022-10-17T04:45:28.631Z,41.30
2022-10-17T04:47:55.751Z,39.17
2022-10-17T04:50:22.815Z,39.28
2022-10-17T04:52:49.882Z,36.35
2022-10-17T04:55:16.998Z,36.50
2022-10-17T04:57:44.051Z,37.78
2022-10-17T05:00:11.880Z,33.83
2022-10-17T05:02:38.982Z,36.20
2022-10-17T05:05:06.237Z,39.63
2022-10-17T05:07:33.304Z,33.50
2022-10-17T05:10:00.374Z,33.30
2022-10-17T05:12:27.714Z,37.80
2022-10-17T05:14:55.060Z,32.03
2022-10-17T05:17:22.130Z,39.17
2022-10-17T05:19:49.214Z,39.25
2022-10-17T05:22:16.273Z,37.20
2022-10-17T05:24:43.344Z,37.55
2022-10-17T05:27:10.424Z,40.05
2022-10-17T05:29:37.554Z,41.20
2022-10-17T05:32:05.949Z,37.85
2022-10-17T05:34:34.811Z,35.92
2022-10-17T05:37:01.982Z,33.42
2022-10-17T05:39:29.059Z,34.40
2022-10-17T05:41:56.125Z,28.35
2022-10-17T05:44:23.268Z,25.50
2022-10-17T05:46:50.468Z,26.98
2022-10-17T05:49:31.904Z,25.70
2022-10-17T05:52:00.274Z,27.58
2022-10-17T05:54:27.425Z,26.05
2022-10-17T05:56:55.163Z,25.52
2022-10-17T05:59:22.624Z,28.13
2022-10-17T06:01:49.914Z,24.10
2022-10-17T06:04:17.666Z,24.90
2022-10-17T06:06:44.762Z,22.27
2022-10-17T06:09:11.898Z,20.17
2022-10-17T06:11:39.311Z,24.58
2022-10-17T06:14:06.562Z,22.52
2022-10-17T06:16:33.659Z,21.33
2022-10-17T06:19:00.744Z,20.40
2022-10-17T06:21:28.333Z,20.30
2022-10-17T06:23:55.397Z,21.35
2022-10-17T06:26:22.527Z,16.77
2022-10-17T06:28:49.725Z,19.10
2022-10-17T06:31:17.233Z,19.85
2022-10-17T06:33:44.285Z,19.80
2022-10-17T06:36:12.508Z,17.30
2022-10-17T06:38:39.561Z,16.65
2022-10-17T06:41:08.748Z,44.53
2022-10-17T06:43:37.074Z,17.85
2022-10-17T06:46:04.697Z,17.77
2022-10-17T06:48:31.870Z,18.10
2022-10-17T06:51:02.647Z,20.83
2022-10-17T06:53:30.307Z,21.23
2022-10-17T06:56:03.081Z,20.70
2022-10-17T06:58:34.110Z,17.73
2022-10-17T07:01:02.192Z,18.08
2022-10-17T07:03:29.484Z,21.33
2022-10-17T07:05:57.005Z,19.25
2022-10-17T07:08:24.094Z,23.30
2022-10-17T07:10:51.518Z,18.60
2022-10-17T07:13:18.907Z,17.23
2022-10-17T07:15:46.393Z,15.50
2022-10-17T07:18:13.760Z,14.60
2022-10-17T07:20:40.844Z,15.35
2022-10-17T07:23:07.912Z,12.95
2022-10-17T07:25:39.284Z,15.85
2022-10-17T07:28:07.351Z,11.68
2022-10-17T07:30:34.519Z,12.10
2022-10-17T07:33:02.782Z,12.15
2022-10-17T07:35:29.967Z,14.95
2022-10-17T07:37:57.085Z,11.40
2022-10-17T07:40:24.138Z,14.48
2022-10-17T07:42:51.229Z,15.52
2022-10-17T07:45:18.322Z,11.30
2022-10-17T07:47:45.371Z,10.18
2022-10-17T07:50:12.625Z,13.35
2022-10-17T07:52:39.804Z,11.77
2022-10-17T07:55:07.813Z,12.75
2022-10-17T07:57:34.906Z,12.35
2022-10-17T08:00:01.992Z,9.20
2022-10-17T08:02:29.456Z,14.05
2022-10-17T08:04:56.993Z,11.27
2022-10-17T08:07:28.343Z,11.73
2022-10-17T08:09:56.545Z,12.25
2022-10-17T08:12:24.980Z,13.65
2022-10-17T08:14:52.045Z,10.18
2022-10-17T08:17:19.112Z,12.38
2022-10-17T08:19:46.148Z,11.57
2022-10-17T08:22:13.201Z,11.73
2022-10-17T08:24:40.278Z,12.50
2022-10-17T08:27:11.358Z,9.95
2022-10-17T08:29:39.136Z,11.73
2022-10-17T08:32:09.614Z,11.68
2022-10-17T08:34:37.019Z,10.52
2022-10-17T08:37:04.168Z,12.57
2022-10-17T08:39:31.292Z,15.13
2022-10-17T08:42:17.380Z,19.52
2022-10-17T08:44:55.280Z,8.20
2022-10-17T08:47:28.413Z,11.48
2022-10-17T08:50:00.743Z,13.40
2022-10-17T08:52:40.575Z,10.60
2022-10-17T08:55:15.171Z,11.15
2022-10-17T08:57:42.360Z,10.85
2022-10-17T09:00:16.205Z,12.48
2022-10-17T09:03:15.001Z,11.77
2022-10-17T09:05:47.002Z,16.58
2022-10-17T09:08:17.118Z,18.23
2022-10-17T09:10:44.162Z,10.83
2022-10-17T09:13:25.580Z,12.80
2022-10-17T09:16:04.763Z,9.75
2022-10-17T09:18:33.492Z,14.35
2022-10-17T09:21:09.731Z,11.10
2022-10-17T09:23:45.926Z,11.68
2022-10-17T09:26:13.150Z,10.90
2022-10-17T09:28:41.565Z,11.05
2022-10-17T09:31:15.103Z,10.18
2022-10-17T09:33:54.395Z,11.07
2022-10-17T09:36:23.960Z,10.30
2022-10-17T09:38:55.036Z,10.77
2022-10-17T09:44:14.082Z,15.50
2022-10-17T09:46:41.401Z,8.17
2022-10-17T09:49:16.431Z,10.52
2022-10-17T09:51:44.890Z,9.40
2022-10-17T09:54:34.747Z,12.15
2022-10-17T09:57:06.408Z,11.90
2022-10-17T09:59:34.447Z,9.52
2022-10-17T10:02:13.751Z,23.95
2022-10-17T10:05:03.655Z,10.93
2022-10-17T10:07:32.689Z,11.43
2022-10-17T10:10:00.840Z,11.27
2022-10-17T10:12:29.724Z,8.52
2022-10-17T10:14:57.766Z,10.57
2022-10-17T10:17:34.177Z,15.90
2022-10-17T10:20:01.617Z,13.45
2022-10-17T10:22:29.244Z,9.65
2022-10-17T10:25:08.527Z,8.80
2022-10-17T10:27:36.166Z,7.75
2022-10-17T10:30:03.501Z,12.45
2022-10-17T10:32:32.750Z,9.50
2022-10-17T10:35:01.760Z,9.73
2022-10-17T10:37:36.367Z,10.43
2022-10-17T10:40:05.254Z,8.85
2022-10-17T10:42:33.714Z,11.27
2022-10-17T10:45:03.657Z,9.13
2022-10-17T10:47:31.918Z,7.67
2022-10-17T10:50:17.447Z,9.02
2022-10-17T10:52:47.730Z,7.50
2022-10-17T10:55:28.463Z,11.50
2022-10-17T10:57:59.367Z,12.98
2022-10-17T11:03:12.826Z,15.32
2022-10-17T11:05:46.017Z,10.40
2022-10-17T11:08:22.645Z,10.18
2022-10-17T11:10:52.618Z,8.18
2022-10-17T11:13:19.684Z,9.50
2022-10-17T11:15:48.882Z,13.35
2022-10-17T11:18:25.159Z,9.18
2022-10-17T11:21:00.255Z,11.55
2022-10-17T11:23:27.290Z,8.82
2022-10-17T11:25:55.341Z,11.23
2022-10-17T11:28:23.840Z,9.75
2022-10-17T11:30:53.021Z,9.77
2022-10-17T11:33:58.746Z,9.50
2022-10-17T11:36:28.898Z,10.68
2022-10-17T11:39:06.931Z,9.10
2022-10-17T11:41:55.503Z,7.95
2022-10-17T11:44:42.111Z,10.88
2022-10-17T11:47:27.799Z,8.10
2022-10-17T11:49:58.641Z,17.67
2022-10-17T11:52:51.839Z,11.00
2022-10-17T11:55:21.477Z,12.32
2022-10-17T11:58:07.263Z,52.42
2022-10-17T12:00:46.171Z,30.02
2022-10-17T12:03:30.673Z,22.85
2022-10-17T12:05:57.776Z,18.55
2022-10-17T12:08:31.275Z,14.45
2022-10-17T12:11:04.337Z,10.25
2022-10-17T12:13:35.600Z,14.18
2022-10-17T12:16:21.135Z,8.02
2022-10-17T12:18:49.004Z,9.48
2022-10-17T12:21:16.242Z,9.05
2022-10-17T12:23:52.182Z,11.70
2022-10-17T12:26:26.991Z,10.45
2022-10-17T12:28:54.377Z,9.93
2022-10-17T12:31:29.766Z,8.05
2022-10-17T12:34:04.892Z,10.05
2022-10-17T12:36:31.961Z,10.18
2022-10-17T12:39:02.297Z,9.50
2022-10-17T12:41:42.452Z,11.45
2022-10-17T12:44:16.659Z,9.63
2022-10-17T12:47:02.717Z,8.75
2022-10-17T12:49:49.687Z,8.52
2022-10-17T12:52:26.894Z,9.93
2022-10-17T12:55:12.743Z,8.18
2022-10-17T12:57:52.649Z,8.35
2022-10-17T13:00:22.250Z,9.40
2022-10-17T13:02:50.632Z,8.95
2022-10-17T13:05:22.391Z,11.98
2022-10-17T13:07:50.287Z,10.27
2022-10-17T13:10:28.501Z,9.38
2022-10-17T13:13:02.214Z,9.82
2022-10-17T13:15:29.554Z,10.27
2022-10-17T13:18:01.008Z,9.02
2022-10-17T13:20:31.419Z,10.05
2022-10-17T13:22:59.089Z,8.60
2022-10-17T13:25:27.154Z,10.07
2022-10-17T13:28:04.508Z,8.05
2022-10-17T13:30:33.150Z,14.85
2022-10-17T13:33:00.667Z,8.60
2022-10-17T13:38:22.255Z,8.43
2022-10-17T13:40:50.484Z,13.68
2022-10-17T13:43:20.237Z,10.13
2022-10-17T13:45:49.588Z,10.90
2022-10-17T13:48:21.296Z,9.48
2022-10-17T13:50:50.350Z,10.38
2022-10-17T13:53:26.809Z,10.75
2022-10-17T13:56:09.355Z,14.15
2022-10-17T13:58:43.430Z,11.48
2022-10-17T14:01:11.604Z,12.90
2022-10-17T14:03:48.499Z,15.48
2022-10-17T14:06:16.295Z,10.80
2022-10-17T14:08:55.568Z,10.43
2022-10-17T14:11:41.710Z,10.07
2022-10-17T14:14:18.578Z,10.88
2022-10-17T14:16:45.746Z,13.18
2022-10-17T14:19:21.747Z,15.07
2022-10-17T14:21:49.518Z,12.10
2022-10-17T14:24:22.611Z,14.25
2022-10-17T14:26:51.030Z,12.85
2022-10-17T14:29:23.508Z,8.98
2022-10-17T14:31:53.530Z,12.38
2022-10-17T14:34:22.880Z,13.27
2022-10-17T14:36:52.113Z,12.10
2022-10-17T14:39:20.893Z,11.25
2022-10-17T14:41:48.675Z,17.42
2022-10-17T14:44:36.031Z,9.60
2022-10-17T14:47:30.122Z,14.52
2022-10-17T14:49:52.788Z,10.90
2022-10-17T14:52:19.927Z,10.95
2022-10-17T14:54:50.713Z,9.65
2022-10-17T14:57:19.243Z,12.18
2022-10-17T14:59:55.400Z,11.05
2022-10-17T15:02:24.243Z,13.73
2022-10-17T15:04:51.422Z,12.45
2022-10-17T15:07:19.210Z,12.88
2022-10-17T15:09:48.019Z,10.23
2022-10-17T15:12:16.857Z,16.98
2022-10-17T15:14:44.505Z,11.32
2022-10-17T15:17:18.568Z,16.83
2022-10-17T15:19:45.732Z,10.73
2022-10-17T15:22:12.975Z,12.77
2022-10-17T15:24:40.103Z,12.98
2022-10-17T15:27:36.746Z,12.02
2022-10-17T15:30:04.406Z,11.77
2022-10-17T15:32:31.555Z,14.63
2022-10-17T15:34:58.652Z,12.63
2022-10-17T15:37:26.573Z,16.67
2022-10-17T15:39:54.964Z,20.30
2022-10-17T15:42:23.362Z,17.10
2022-10-17T15:44:50.582Z,12.05
2022-10-17T15:47:23.549Z,12.93
2022-10-17T15:49:50.712Z,15.07
2022-10-17T15:52:17.854Z,13.43
2022-10-17T15:54:44.962Z,14.02
2022-10-17T15:57:17.411Z,13.88
2022-10-17T15:59:46.873Z,12.68
2022-10-17T16:02:15.156Z,16.23
2022-10-17T16:04:42.770Z,13.40
2022-10-17T16:07:10.307Z,16.40
2022-10-17T16:09:37.764Z,15.95
2022-10-17T16:12:06.721Z,16.25
2022-10-17T16:14:33.970Z,18.45
2022-10-17T16:17:01.604Z,18.30
2022-10-17T16:19:30.022Z,27.42
2022-10-17T16:21:59.642Z,29.33
2022-10-17T16:24:29.348Z,25.45
2022-10-17T16:26:56.490Z,31.50
2022-10-17T16:29:23.662Z,32.10
2022-10-17T16:31:50.749Z,24.30
2022-10-17T16:34:17.831Z,21.85
2022-10-17T16:36:44.915Z,19.63
2022-10-17T16:39:12.077Z,21.05
2022-10-17T16:41:39.813Z,23.42
2022-10-17T16:44:08.379Z,22.35
2022-10-17T16:46:37.135Z,26.80
2022-10-17T16:49:05.392Z,30.05
2022-10-17T16:51:33.775Z,28.88
2022-10-17T16:54:00.854Z,28.20
2022-10-17T16:56:32.759Z,30.58
2022-10-17T16:59:00.383Z,29.13
2022-10-17T17:01:29.346Z,28.10
2022-10-17T17:03:57.053Z,27.45
2022-10-17T17:06:26.640Z,21.92
2022-10-17T17:08:54.338Z,26.13
2022-10-17T17:11:22.452Z,27.35
2022-10-17T17:13:49.967Z,27.48
2022-10-17T17:16:21.541Z,29.15
2022-10-17T17:18:51.361Z,31.05
2022-10-17T17:21:18.572Z,35.08
2022-10-17T17:23:45.884Z,27.38
2022-10-17T17:26:15.182Z,30.08
2022-10-17T17:28:42.744Z,28.85
2022-10-17T17:31:14.749Z,24.58
2022-10-17T17:33:42.569Z,24.85
2022-10-17T17:36:11.400Z,23.00
2022-10-17T17:38:40.073Z,20.00
2022-10-17T17:41:07.256Z,18.38
2022-10-17T17:43:34.458Z,22.20
2022-10-17T17:46:02.470Z,22.52
2022-10-17T17:48:29.924Z,17.25
2022-10-17T17:50:57.231Z,17.13
2022-10-17T17:53:24.412Z,19.33
2022-10-17T17:56:01.493Z,17.00
2022-10-17T17:58:28.655Z,15.90
2022-10-17T18:00:55.819Z,18.60
2022-10-17T18:03:22.992Z,17.15
2022-10-17T18:05:50.132Z,15.43
2022-10-17T18:08:17.230Z,20.48
2022-10-17T18:10:48.380Z,24.70
2022-10-17T18:13:15.663Z,17.60
2022-10-17T18:15:43.571Z,19.13
2022-10-17T18:18:10.928Z,19.88
2022-10-17T18:20:44.196Z,18.40
2022-10-17T18:23:11.673Z,22.25
2022-10-17T18:25:38.922Z,17.55
2022-10-17T18:28:06.300Z,22.83
2022-10-17T18:30:34.526Z,19.77
2022-10-17T18:33:01.744Z,16.60
2022-10-17T18:35:28.940Z,23.17
2022-10-17T18:37:57.017Z,20.85
2022-10-17T18:40:24.190Z,19.92
2022-10-17T18:42:51.262Z,19.83
2022-10-17T18:45:18.420Z,17.02
2022-10-17T18:47:52.525Z,22.77
2022-10-17T18:50:20.244Z,22.10
2022-10-17T18:52:48.013Z,18.48
2022-10-17T18:55:16.419Z,18.52
2022-10-17T18:57:43.646Z,20.25
2022-10-17T19:00:11.153Z,23.35
2022-10-17T19:02:38.307Z,19.80
2022-10-17T19:05:05.697Z,20.55
2022-10-17T19:07:33.016Z,22.48
2022-10-17T19:10:00.429Z,20.60
2022-10-17T19:12:27.547Z,19.58
2022-10-17T19:14:56.261Z,19.80
2022-10-17T19:17:23.524Z,20.88
2022-10-17T19:19:52.261Z,26.90
2022-10-17T19:22:19.463Z,22.70
2022-10-17T19:24:46.655Z,24.88
2022-10-17T19:27:13.848Z,22.48
2022-10-17T19:29:43.560Z,22.13
2022-10-17T19:32:15.690Z,28.17
2022-10-17T19:34:45.279Z,25.35
2022-10-17T19:37:12.494Z,21.88
2022-10-17T19:39:39.728Z,26.77
2022-10-17T19:42:07.248Z,22.00
2022-10-17T19:44:34.661Z,25.95
2022-10-17T19:47:01.760Z,25.75
2022-10-17T19:49:28.869Z,23.05
2022-10-17T19:51:55.951Z,27.25
2022-10-17T19:54:23.477Z,24.08
2022-10-17T19:56:50.631Z,25.35
2022-10-17T19:59:18.107Z,23.55
2022-10-17T20:01:46.039Z,22.27
2022-10-17T20:04:13.728Z,25.25
2022-10-17T20:06:41.326Z,31.77
2022-10-17T20:09:11.187Z,24.92
2022-10-17T20:11:41.242Z,28.92
2022-10-17T20:14:08.453Z,29.10
2022-10-17T20:16:36.262Z,30.13
2022-10-17T20:19:05.824Z,29.90
2022-10-17T20:21:35.156Z,25.45
2022-10-17T20:24:03.023Z,25.13
2022-10-17T20:26:38.158Z,23.85
2022-10-17T20:29:10.714Z,25.10
2022-10-17T20:31:38.517Z,26.98
2022-10-17T20:34:06.082Z,24.13
2022-10-17T20:36:36.939Z,23.85
2022-10-17T20:39:05.036Z,24.08
2022-10-17T20:41:32.438Z,22.90
2022-10-17T20:43:59.743Z,23.25
2022-10-17T20:46:36.887Z,28.67
2022-10-17T20:49:08.225Z,25.55
2022-10-17T20:51:35.862Z,26.53
2022-10-17T20:54:03.493Z,25.40
2022-10-17T20:56:31.609Z,25.10
2022-10-17T20:59:00.394Z,25.17
2022-10-17T21:01:27.845Z,26.08
2022-10-17T21:03:55.158Z,26.50
2022-10-17T21:06:22.888Z,25.25
2022-10-17T21:08:52.437Z,22.77
2022-10-17T21:11:20.954Z,23.95
2022-10-17T21:13:48.522Z,30.05
2022-10-17T21:16:17.179Z,26.75
2022-10-17T21:18:44.682Z,25.38
2022-10-17T21:21:19.323Z,25.73
2022-10-17T21:23:47.677Z,25.25
2022-10-17T21:26:15.253Z,25.52
2022-10-17T21:28:43.129Z,25.35
2022-10-17T21:31:16.015Z,22.30
2022-10-17T21:33:45.678Z,23.27
2022-10-17T21:36:16.832Z,24.88
2022-10-17T21:38:44.899Z,24.67
2022-10-17T21:41:13.882Z,25.60
2022-10-17T21:43:41.389Z,26.85
2022-10-17T21:46:10.237Z,26.52
2022-10-17T21:48:37.363Z,27.90
2022-10-17T21:51:05.526Z,23.33
2022-10-17T21:53:33.235Z,26.85
2022-10-17T21:56:01.251Z,26.23
2022-10-17T21:58:28.653Z,25.58
2022-10-17T22:01:13.649Z,25.75
2022-10-17T22:03:46.858Z,23.08
2022-10-17T22:06:39.643Z,24.88
2022-10-17T22:09:07.017Z,25.85
2022-10-17T22:11:35.975Z,24.30
2022-10-17T22:14:05.680Z,22.77
2022-10-17T22:16:33.281Z,25.05
2022-10-17T22:19:05.086Z,27.48
2022-10-17T22:21:33.909Z,24.65
2022-10-17T22:24:03.304Z,31.67
2022-10-17T22:26:31.282Z,23.30
2022-10-17T22:28:58.557Z,23.73
2022-10-17T22:31:25.995Z,26.27
2022-10-17T22:33:53.403Z,23.73
2022-10-17T22:36:20.554Z,25.10
2022-10-17T22:38:50.189Z,23.67
2022-10-17T22:41:17.257Z,28.00
2022-10-17T22:43:44.502Z,28.35
2022-10-17T22:46:13.352Z,24.75
2022-10-17T22:48:40.466Z,22.92
2022-10-17T22:51:15.138Z,23.38
2022-10-17T22:53:42.687Z,28.45
2022-10-17T22:56:20.198Z,25.85
2022-10-17T22:58:47.538Z,25.42
2022-10-17T23:01:16.176Z,25.95
2022-10-17T23:03:43.705Z,30.60
2022-10-17T23:06:11.246Z,28.48
2022-10-17T23:08:38.346Z,26.90
2022-10-17T23:11:05.880Z,25.05
2022-10-17T23:13:32.984Z,27.35
2022-10-17T23:16:00.121Z,22.33
2022-10-17T23:18:27.621Z,22.33
2022-10-17T23:20:55.412Z,26.13
2022-10-17T23:23:22.818Z,20.13
2022-10-17T23:25:50.510Z,26.98
2022-10-17T23:28:17.967Z,26.27
2022-10-17T23:30:45.064Z,24.90
2022-10-17T23:33:13.174Z,21.80
2022-10-17T23:35:40.551Z,23.35
2022-10-17T23:38:07.651Z,22.27
2022-10-17T23:40:35.338Z,20.67
2022-10-17T23:43:02.784Z,19.58
2022-10-17T23:45:33.402Z,21.17
2022-10-17T23:48:04.047Z,22.15
2022-10-17T23:50:31.170Z,19.80
2022-10-17T23:52:58.236Z,21.13
2022-10-17T23:55:25.315Z,24.17
2022-10-17T23:57:52.394Z,26.73
